Time;durP1;ratioP1;P1;durP2;ratioP2;P2;SDS_P1;SDS_P2;PMS_P1;PMS_P2;Temp;Humidity;BMP_temperature;BMP_pressure;BME280_temperature;BME280_humidity;BME280_pressure;Samples;Min_cycle;Max_cycle;Signal;HPM_P1;HPM_P2
2021/07/25 00:00:23;;;;;;;7.30;3.70;;;;;;;;;;10256230;28;20196;-71
2021/07/25 00:05:28;;;;;;;6.67;3.50;;;;;;;;;;10242944;28;20220;-71
2021/07/25 00:10:30;;;;;;;7.67;3.40;;;;;;;;;;10250957;28;20200;-72
2021/07/25 00:15:33;;;;;;;8.03;3.43;;;;;;;;;;10241500;28;20692;-72
2021/07/25 00:20:37;;;;;;;8.40;3.40;;;;;;;;;;10256643;28;20208;-72
2021/07/25 00:25:42;;;;;;;7.77;3.30;;;;;;;;;;10244687;28;20244;-72
2021/07/25 00:30:45;;;;;;;8.07;3.60;;;;;;;;;;10258380;28;20274;-72
2021/07/25 00:35:49;;;;;;;7.97;3.53;;;;;;;;;;10239604;28;20224;-72
2021/07/25 00:40:53;;;;;;;9.47;3.47;;;;;;;;;;10245928;28;20197;-72
2021/07/25 00:45:56;;;;;;;8.60;3.80;;;;;;;;;;10237851;28;20617;-71
2021/07/25 00:51:00;;;;;;;8.57;3.80;;;;;;;;;;10242161;28;20198;-71
2021/07/25 00:56:03;;;;;;;8.30;3.80;;;;;;;;;;10254172;28;20231;-70
2021/07/25 01:01:06;;;;;;;7.43;3.33;;;;;;;;;;10248353;28;20640;-71
2021/07/25 01:06:18;;;;;;;7.50;3.47;;;;;;;;;;10253521;28;20299;-71
2021/07/25 01:11:20;;;;;;;8.07;3.40;;;;;;;;;;10247275;28;20191;-72
2021/07/25 01:16:23;;;;;;;10.47;4.90;;;;;;;;;;10253117;28;20282;-72
2021/07/25 01:21:27;;;;;;;15.70;9.60;;;;;;;;;;10251740;28;20388;-70
2021/07/25 01:26:31;;;;;;;8.60;3.30;;;;;;;;;;10254335;28;20269;-71
2021/07/25 01:31:37;;;;;;;7.27;3.33;;;;;;;;;;10257886;28;20224;-72
2021/07/25 01:36:41;;;;;;;7.67;3.40;;;;;;;;;;10246731;28;20687;-70
2021/07/25 01:41:44;;;;;;;8.50;3.70;;;;;;;;;;10244027;28;20200;-71
2021/07/25 01:46:46;;;;;;;8.10;4.03;;;;;;;;;;10257446;28;20212;-71
2021/07/25 01:51:51;;;;;;;6.70;3.40;;;;;;;;;;10254086;28;20932;-71
2021/07/25 01:56:53;;;;;;;9.07;3.60;;;;;;;;;;10256673;28;20215;-72
2021/07/25 02:01:56;;;;;;;7.57;3.67;;;;;;;;;;10257916;28;20283;-72
2021/07/25 02:07:00;;;;;;;9.23;3.43;;;;;;;;;;10249934;28;20216;-72
2021/07/25 02:12:03;;;;;;;8.70;3.70;;;;;;;;;;10252924;28;20636;-73
2021/07/25 02:17:06;;;;;;;8.30;3.50;;;;;;;;;;10252121;28;20736;-72
2021/07/25 02:22:10;;;;;;;8.83;4.00;;;;;;;;;;10243350;28;20235;-72
2021/07/25 02:27:13;;;;;;;10.07;4.10;;;;;;;;;;10255857;28;20208;-72
2021/07/25 02:32:15;;;;;;;8.83;4.30;;;;;;;;;;10246831;28;20263;-72
2021/07/25 02:37:19;;;;;;;8.70;4.40;;;;;;;;;;10249457;28;20241;-73
2021/07/25 02:42:22;;;;;;;7.70;3.97;;;;;;;;;;10255586;28;20259;-73
2021/07/25 02:47:25;;;;;;;10.43;4.23;;;;;;;;;;10259318;28;20224;-72
2021/07/25 02:52:29;;;;;;;8.50;4.30;;;;;;;;;;10254222;28;20251;-72
2021/07/25 02:57:32;;;;;;;8.00;3.90;;;;;;;;;;10256454;28;20267;-73
2021/07/25 03:02:36;;;;;;;8.17;3.87;;;;;;;;;;10263346;28;20247;-72
2021/07/25 03:07:41;;;;;;;9.20;4.30;;;;;;;;;;10250042;28;20303;-72
2021/07/25 03:12:43;;;;;;;8.40;3.70;;;;;;;;;;10247812;28;20204;-70
2021/07/25 03:17:46;;;;;;;8.03;3.77;;;;;;;;;;10255183;28;20199;-72
2021/07/25 03:22:50;;;;;;;9.73;3.67;;;;;;;;;;10243044;28;20203;-72
2021/07/25 03:27:53;;;;;;;9.40;3.87;;;;;;;;;;10263240;28;20267;-72
2021/07/25 03:32:55;;;;;;;9.57;3.80;;;;;;;;;;10254094;28;20703;-73
2021/07/25 03:37:59;;;;;;;9.10;3.60;;;;;;;;;;10250997;28;20259;-70
2021/07/25 03:43:03;;;;;;;10.07;3.60;;;;;;;;;;10254514;28;20204;-72
2021/07/25 03:48:06;;;;;;;6.17;3.30;;;;;;;;;;10246274;28;20549;-73
2021/07/25 03:53:10;;;;;;;7.87;3.60;;;;;;;;;;10254900;28;20696;-71
2021/07/25 03:58:13;;;;;;;9.87;3.53;;;;;;;;;;10258742;28;20203;-72
2021/07/25 04:03:15;;;;;;;9.37;3.43;;;;;;;;;;10256762;28;20721;-72
2021/07/25 04:08:19;;;;;;;11.57;4.23;;;;;;;;;;10246668;28;20820;-72
2021/07/25 04:13:22;;;;;;;8.87;3.60;;;;;;;;;;10251638;28;20236;-72
2021/07/25 04:18:24;;;;;;;10.60;3.70;;;;;;;;;;10245700;28;20189;-72
2021/07/25 04:23:28;;;;;;;10.37;3.80;;;;;;;;;;10249248;28;20224;-72
2021/07/25 04:28:31;;;;;;;9.57;3.90;;;;;;;;;;10251527;28;20291;-72
2021/07/25 04:33:34;;;;;;;8.13;3.93;;;;;;;;;;10256307;28;20592;-73
2021/07/25 04:38:39;;;;;;;12.10;4.50;;;;;;;;;;10246847;28;20633;-72
2021/07/25 04:43:41;;;;;;;9.77;3.93;;;;;;;;;;10254774;28;20704;-72
2021/07/25 04:48:47;;;;;;;8.33;4.00;;;;;;;;;;10253659;28;20216;-72
2021/07/25 04:53:51;;;;;;;9.17;4.00;;;;;;;;;;10248317;28;20258;-73
2021/07/25 04:58:59;;;;;;;8.57;3.63;;;;;;;;;;10244860;28;20707;-72
2021/07/25 05:04:03;;;;;;;7.80;3.90;;;;;;;;;;10239431;28;20215;-73
2021/07/25 05:09:07;;;;;;;8.23;3.87;;;;;;;;;;10248144;28;20283;-73
2021/07/25 05:14:13;;;;;;;8.77;3.80;;;;;;;;;;10257676;28;20234;-70
2021/07/25 05:19:21;;;;;;;8.90;3.90;;;;;;;;;;10243639;28;20668;-72
2021/07/25 05:24:28;;;;;;;8.37;4.13;;;;;;;;;;10248087;28;20702;-72
2021/07/25 05:29:32;;;;;;;7.07;3.90;;;;;;;;;;10254975;28;20671;-72
2021/07/25 05:34:35;;;;;;;8.30;3.53;;;;;;;;;;10264195;28;20212;-73
2021/07/25 05:39:39;;;;;;;8.00;3.93;;;;;;;;;;10254164;28;20283;-71
2021/07/25 05:44:41;;;;;;;7.60;3.63;;;;;;;;;;10255538;28;20251;-73
2021/07/25 05:49:44;;;;;;;8.43;3.90;;;;;;;;;;10268962;28;20645;-71
2021/07/25 05:54:47;;;;;;;7.43;3.73;;;;;;;;;;10245882;28;20748;-69
2021/07/25 05:59:50;;;;;;;10.60;4.10;;;;;;;;;;10261832;28;20203;-73
2021/07/25 06:04:52;;;;;;;7.87;3.93;;;;;;;;;;10252163;28;20774;-73
2021/07/25 06:09:56;;;;;;;7.83;4.00;;;;;;;;;;10257130;28;20515;-73
2021/07/25 06:14:59;;;;;;;9.27;4.00;;;;;;;;;;10249089;28;20239;-73
2021/07/25 06:20:01;;;;;;;9.57;4.03;;;;;;;;;;10250966;28;20200;-73
2021/07/25 06:25:06;;;;;;;9.00;3.63;;;;;;;;;;10258874;28;20217;-73
2021/07/25 06:30:09;;;;;;;9.03;3.87;;;;;;;;;;10254628;28;20244;-73
2021/07/25 06:35:12;;;;;;;9.60;3.67;;;;;;;;;;10258045;28;20216;-73
2021/07/25 06:40:16;;;;;;;9.23;3.60;;;;;;;;;;10251365;28;20199;-71
2021/07/25 06:45:19;;;;;;;6.13;3.30;;;;;;;;;;10258875;28;20222;-70
2021/07/25 06:50:23;;;;;;;9.23;3.90;;;;;;;;;;10261422;28;20204;-72
2021/07/25 06:55:28;;;;;;;7.03;3.37;;;;;;;;;;10246835;28;20212;-71
2021/07/25 07:00:31;;;;;;;7.67;3.57;;;;;;;;;;10265805;28;20192;-71
2021/07/25 07:05:34;;;;;;;9.53;3.70;;;;;;;;;;10241004;28;20708;-71
2021/07/25 07:10:40;;;;;;;8.40;3.73;;;;;;;;;;10248159;28;20193;-71
2021/07/25 07:15:44;;;;;;;8.40;3.80;;;;;;;;;;10260085;28;20224;-71
2021/07/25 07:20:47;;;;;;;7.35;3.58;;;;;;;;;;10248099;28;20204;-70
2021/07/25 07:25:52;;;;;;;6.95;3.50;;;;;;;;;;10257941;28;20838;-70
2021/07/25 07:30:55;;;;;;;6.88;3.30;;;;;;;;;;10254036;28;20266;-71
2021/07/25 07:35:57;;;;;;;6.88;3.35;;;;;;;;;;10249658;28;20205;-72
2021/07/25 07:41:01;;;;;;;6.70;3.28;;;;;;;;;;10250735;28;20529;-72
2021/07/25 07:46:04;;;;;;;7.43;3.63;;;;;;;;;;10259378;28;20274;-72
2021/07/25 07:51:07;;;;;;;7.30;3.33;;;;;;;;;;10246252;28;20193;-71
2021/07/25 07:56:10;;;;;;;6.20;3.20;;;;;;;;;;10236227;28;20212;-72
2021/07/25 08:01:13;;;;;;;6.95;3.60;;;;;;;;;;10251287;28;20208;-71
2021/07/25 08:06:16;;;;;;;6.32;3.33;;;;;;;;;;10244188;28;20219;-71
2021/07/25 08:11:20;;;;;;;7.18;3.47;;;;;;;;;;10253378;28;20279;-72
2021/07/25 08:16:22;;;;;;;6.18;3.20;;;;;;;;;;10250686;28;20228;-72
2021/07/25 08:21:25;;;;;;;6.90;3.28;;;;;;;;;;10257279;28;20197;-71
2021/07/25 08:26:28;;;;;;;6.82;3.35;;;;;;;;;;10250180;28;20219;-72
2021/07/25 08:31:31;;;;;;;5.97;3.15;;;;;;;;;;10251643;28;20201;-71
2021/07/25 08:36:34;;;;;;;6.35;3.00;;;;;;;;;;10247030;28;20723;-71
2021/07/25 08:41:52;;;;;;;7.28;3.53;;;;;;;;;;10246609;28;20705;-72
2021/07/25 08:46:55;;;;;;;9.63;6.30;;;;;;;;;;10242358;28;20215;-71
2021/07/25 08:51:59;;;;;;;6.85;3.40;;;;;;;;;;10242023;28;20275;-72
2021/07/25 08:57:05;;;;;;;9.32;3.72;;;;;;;;;;10254841;28;20224;-72
2021/07/25 09:02:08;;;;;;;7.97;3.42;;;;;;;;;;10249905;28;20236;-72
2021/07/25 09:07:12;;;;;;;8.57;3.80;;;;;;;;;;10249669;28;20316;-72
2021/07/25 09:12:17;;;;;;;6.32;3.55;;;;;;;;;;10250572;28;20204;-72
2021/07/25 09:17:19;;;;;;;7.88;3.95;;;;;;;;;;10254377;28;20283;-72
2021/07/25 09:22:22;;;;;;;8.20;4.00;;;;;;;;;;10258443;28;20219;-71
2021/07/25 09:27:26;;;;;;;8.02;4.07;;;;;;;;;;10253344;28;20292;-71
2021/07/25 09:32:32;;;;;;;9.68;5.22;;;;;;;;;;10253041;28;20230;-71
2021/07/25 09:37:39;;;;;;;9.35;4.55;;;;;;;;;;10245794;28;20278;-72
2021/07/25 09:42:43;;;;;;;7.93;4.20;;;;;;;;;;10239473;28;20275;-72
2021/07/25 09:47:46;;;;;;;8.00;3.50;;;;;;;;;;10243370;28;20276;-70
2021/07/25 09:52:49;;;;;;;6.43;3.30;;;;;;;;;;10244791;28;20200;-70
2021/07/25 09:57:55;;;;;;;7.25;3.45;;;;;;;;;;10252232;28;20201;-72
2021/07/25 10:02:57;;;;;;;7.07;3.40;;;;;;;;;;10252999;28;20280;-74
2021/07/25 10:08:14;;;;;;;7.47;3.35;;;;;;;;;;10248724;28;20921;-72
2021/07/25 10:13:20;;;;;;;5.18;2.90;;;;;;;;;;10258206;28;20230;-71
2021/07/25 10:18:23;;;;;;;6.07;2.63;;;;;;;;;;10262097;28;20199;-70
2021/07/25 10:23:32;;;;;;;4.95;2.80;;;;;;;;;;10257564;28;20747;-72
2021/07/25 10:28:37;;;;;;;4.90;2.50;;;;;;;;;;10254550;28;20212;-71
2021/07/25 10:33:41;;;;;;;6.72;2.80;;;;;;;;;;10244643;28;20244;-72
2021/07/25 10:38:44;;;;;;;4.53;2.35;;;;;;;;;;10255038;28;20195;-72
2021/07/25 10:43:48;;;;;;;3.78;2.50;;;;;;;;;;10257118;28;20238;-71
2021/07/25 10:49:10;;;;;;;5.95;2.97;;;;;;;;;;10248162;28;20252;-71
2021/07/25 10:54:31;;;;;;;5.55;2.67;;;;;;;;;;10254025;28;20319;-70
2021/07/25 10:59:39;;;;;;;6.30;2.88;;;;;;;;;;10254072;28;20601;-71
2021/07/25 11:05:00;;;;;;;5.28;3.13;;;;;;;;;;10256710;28;20286;-71
2021/07/25 11:10:05;;;;;;;6.40;3.25;;;;;;;;;;10256519;28;20215;-71
2021/07/25 11:15:09;;;;;;;6.93;4.30;;;;;;;;;;10248651;28;20630;-70
2021/07/25 11:20:30;;;;;;;6.80;3.75;;;;;;;;;;10244475;28;20675;-70
2021/07/25 11:25:35;;;;;;;5.13;2.80;;;;;;;;;;10244916;28;20298;-70
2021/07/25 11:30:57;;;;;;;7.07;3.10;;;;;;;;;;10255116;28;20621;-71
2021/07/25 11:36:01;;;;;;;5.07;2.85;;;;;;;;;;10246073;28;20697;-70
2021/07/25 11:41:04;;;;;;;8.10;3.50;;;;;;;;;;10242426;28;20227;-71
2021/07/25 11:46:20;;;;;;;7.47;3.60;;;;;;;;;;10252026;28;20630;-69
2021/07/25 11:51:24;;;;;;;7.25;3.40;;;;;;;;;;10250632;28;20227;-69
2021/07/25 11:56:27;;;;;;;7.13;4.07;;;;;;;;;;10255872;28;20311;-70
2021/07/25 12:01:30;;;;;;;5.60;2.88;;;;;;;;;;10250607;28;20571;-71
2021/07/25 12:06:34;;;;;;;8.82;3.83;;;;;;;;;;10252750;28;20220;-69
2021/07/25 12:11:37;;;;;;;7.70;3.58;;;;;;;;;;10236328;28;20698;-71
2021/07/25 12:16:47;;;;;;;6.28;3.33;;;;;;;;;;10251131;28;20313;-71
2021/07/25 12:22:04;;;;;;;6.00;3.30;;;;;;;;;;10247723;28;20657;-70
2021/07/25 12:27:18;;;;;;;6.40;3.13;;;;;;;;;;10252358;28;20653;-71
2021/07/25 12:32:25;;;;;;;5.88;3.05;;;;;;;;;;10247187;28;20200;-70
2021/07/25 12:37:30;;;;;;;6.13;3.22;;;;;;;;;;10248399;28;20220;-69
2021/07/25 12:42:36;;;;;;;7.10;3.75;;;;;;;;;;10239913;28;20217;-68
2021/07/25 12:47:39;;;;;;;5.15;2.92;;;;;;;;;;10255089;28;20256;-68
2021/07/25 12:52:43;;;;;;;5.55;3.20;;;;;;;;;;10251549;28;20236;-69
2021/07/25 12:58:03;;;;;;;6.88;3.40;;;;;;;;;;10257015;28;20196;-68
2021/07/25 13:08:49;;;;;;;6.03;3.15;;;;;;;;;;10252949;28;20228;-66
2021/07/25 13:13:53;;;;;;;5.28;2.88;;;;;;;;;;10247150;28;20219;-69
2021/07/25 13:18:56;;;;;;;7.60;3.25;;;;;;;;;;10244931;28;20189;-69
2021/07/25 13:24:00;;;;;;;9.02;4.20;;;;;;;;;;10236525;28;20696;-69
2021/07/25 13:29:03;;;;;;;8.55;4.32;;;;;;;;;;10241645;28;20644;-69
2021/07/25 13:34:06;;;;;;;7.43;3.85;;;;;;;;;;10244356;28;20212;-70
2021/07/25 13:39:10;;;;;;;7.97;3.97;;;;;;;;;;10239082;28;20684;-67
2021/07/25 13:44:12;;;;;;;6.30;3.92;;;;;;;;;;10242914;28;20227;-69
2021/07/25 13:49:15;;;;;;;8.20;4.10;;;;;;;;;;10244681;28;20216;-70
2021/07/25 13:54:20;;;;;;;8.57;4.80;;;;;;;;;;10248707;28;20216;-70
2021/07/25 13:59:22;;;;;;;8.80;5.18;;;;;;;;;;10251102;28;20256;-70
2021/07/25 14:04:25;;;;;;;8.23;4.53;;;;;;;;;;10248274;28;20245;-70
2021/07/25 14:09:30;;;;;;;8.10;4.28;;;;;;;;;;10248384;28;20224;-69
2021/07/25 14:14:33;;;;;;;9.63;5.10;;;;;;;;;;10250077;28;20283;-70
2021/07/25 14:19:35;;;;;;;7.72;4.57;;;;;;;;;;10250311;28;20215;-75
2021/07/25 14:24:41;;;;;;;7.75;3.95;;;;;;;;;;10246466;28;20250;-75
2021/07/25 14:29:43;;;;;;;8.23;4.53;;;;;;;;;;10251642;28;20212;-77
2021/07/25 14:34:47;;;;;;;7.97;3.95;;;;;;;;;;10248109;28;20735;-76
2021/07/25 14:39:51;;;;;;;8.27;4.35;;;;;;;;;;10248506;28;20221;-76
2021/07/25 14:44:54;;;;;;;8.50;4.35;;;;;;;;;;10249649;28;20278;-75
2021/07/25 14:49:56;;;;;;;7.03;4.03;;;;;;;;;;10243467;28;20248;-75
2021/07/25 14:55:05;;;;;;;7.40;4.15;;;;;;;;;;10254197;28;20423;-76
2021/07/25 15:00:13;;;;;;;8.48;4.70;;;;;;;;;;10245073;28;20648;-75
2021/07/25 15:05:15;;;;;;;7.00;4.00;;;;;;;;;;10248318;28;20598;-75
2021/07/25 15:10:19;;;;;;;8.90;5.00;;;;;;;;;;10250006;28;20254;-74
2021/07/25 15:15:22;;;;;;;10.15;5.90;;;;;;;;;;10245849;28;20356;-76
2021/07/25 15:20:25;;;;;;;6.95;3.50;;;;;;;;;;10246034;28;20688;-75
2021/07/25 15:25:28;;;;;;;5.63;3.22;;;;;;;;;;10253530;28;20740;-75
2021/07/25 15:30:31;;;;;;;11.40;6.65;;;;;;;;;;10248615;28;20263;-74
2021/07/25 15:35:34;;;;;;;6.72;3.63;;;;;;;;;;10243429;28;20320;-75
2021/07/25 15:40:38;;;;;;;6.10;3.45;;;;;;;;;;10245275;28;20204;-75
2021/07/25 15:45:41;;;;;;;10.25;6.88;;;;;;;;;;10242368;28;20368;-76
2021/07/25 15:50:47;;;;;;;6.70;3.50;;;;;;;;;;10242617;28;20235;-75
2021/07/25 15:55:51;;;;;;;7.18;3.47;;;;;;;;;;10249020;28;20216;-74
2021/07/25 16:00:53;;;;;;;5.80;3.00;;;;;;;;;;10242628;28;20267;-74
2021/07/25 16:05:56;;;;;;;6.70;3.35;;;;;;;;;;10257264;28;20220;-75
2021/07/25 16:11:00;;;;;;;7.57;4.15;;;;;;;;;;10246581;28;20315;-73
2021/07/25 16:16:02;;;;;;;7.90;3.40;;;;;;;;;;10248954;28;20231;-75
2021/07/25 16:21:05;;;;;;;7.63;3.13;;;;;;;;;;10249797;28;20200;-76
2021/07/25 16:26:10;;;;;;;7.20;3.50;;;;;;;;;;10243411;28;20712;-74
2021/07/25 16:31:13;;;;;;;6.72;3.70;;;;;;;;;;10243175;28;20213;-72
2021/07/25 16:36:17;;;;;;;7.40;3.60;;;;;;;;;;10239094;28;20296;-71
2021/07/25 16:41:23;;;;;;;7.38;4.15;;;;;;;;;;10243647;28;20216;-69
2021/07/25 16:46:26;;;;;;;8.27;4.10;;;;;;;;;;10239636;28;20244;-73
2021/07/25 16:51:29;;;;;;;8.95;4.07;;;;;;;;;;10243204;28;20223;-70
2021/07/25 16:56:32;;;;;;;8.45;4.80;;;;;;;;;;10244798;28;20248;-71
2021/07/25 17:01:35;;;;;;;8.10;3.72;;;;;;;;;;10245975;28;20271;-73
2021/07/25 17:06:38;;;;;;;7.75;3.78;;;;;;;;;;10262789;28;20307;-72
2021/07/25 17:11:42;;;;;;;8.13;4.22;;;;;;;;;;10235974;28;20328;-72
2021/07/25 17:16:44;;;;;;;7.03;3.88;;;;;;;;;;10247245;28;20601;-75
2021/07/25 17:21:47;;;;;;;6.57;3.45;;;;;;;;;;10238176;28;20685;-71
2021/07/25 17:26:51;;;;;;;6.40;3.28;;;;;;;;;;10254635;28;20770;-70
2021/07/25 17:31:53;;;;;;;7.50;3.50;;;;;;;;;;10249948;28;20220;-75
2021/07/25 17:36:56;;;;;;;6.60;3.70;;;;;;;;;;10240470;28;20275;-72
2021/07/25 17:42:00;;;;;;;6.80;4.00;;;;;;;;;;10243131;28;20273;-71
2021/07/25 17:47:03;;;;;;;7.45;3.92;;;;;;;;;;10245962;28;20232;-72
2021/07/25 17:52:06;;;;;;;7.03;3.40;;;;;;;;;;10246575;28;20594;-73
2021/07/25 17:57:10;;;;;;;6.88;3.63;;;;;;;;;;10241018;28;20580;-72
2021/07/25 18:02:12;;;;;;;7.95;3.97;;;;;;;;;;10246846;28;20199;-72
2021/07/25 18:07:15;;;;;;;7.95;4.25;;;;;;;;;;10241277;28;20220;-72
2021/07/25 18:12:19;;;;;;;8.98;4.95;;;;;;;;;;10252247;28;20256;-72
2021/07/25 18:17:22;;;;;;;9.05;4.68;;;;;;;;;;10246146;28;20275;-72
2021/07/25 18:22:25;;;;;;;7.85;4.10;;;;;;;;;;10242985;28;20192;-71
2021/07/25 18:27:29;;;;;;;6.60;3.90;;;;;;;;;;10234662;28;20224;-71
2021/07/25 18:32:35;;;;;;;12.52;8.27;;;;;;;;;;10238904;28;20849;-72
2021/07/25 18:37:37;;;;;;;9.48;4.55;;;;;;;;;;10253690;28;20629;-72
2021/07/25 18:42:41;;;;;;;8.13;3.90;;;;;;;;;;10249249;28;20220;-72
2021/07/25 18:47:44;;;;;;;8.02;4.57;;;;;;;;;;10255530;28;20236;-71
2021/07/25 18:52:46;;;;;;;9.17;4.30;;;;;;;;;;10248112;28;20287;-72
2021/07/25 18:57:50;;;;;;;8.17;5.00;;;;;;;;;;10252216;28;20220;-71
2021/07/25 19:02:53;;;;;;;8.87;5.30;;;;;;;;;;10248748;28;20196;-71
2021/07/25 19:07:55;;;;;;;8.03;4.93;;;;;;;;;;10247710;28;20228;-71
2021/07/25 19:12:59;;;;;;;9.50;4.83;;;;;;;;;;10249592;28;20303;-72
2021/07/25 19:18:02;;;;;;;9.10;4.57;;;;;;;;;;10249049;28;20215;-71
2021/07/25 19:23:05;;;;;;;8.50;4.47;;;;;;;;;;10248851;28;21409;-71
2021/07/25 19:28:10;;;;;;;7.67;4.20;;;;;;;;;;10249681;28;20204;-71
2021/07/25 19:33:14;;;;;;;19.10;12.40;;;;;;;;;;10253079;28;20311;-71
2021/07/25 19:38:17;;;;;;;9.83;5.50;;;;;;;;;;10251411;28;20228;-72
2021/07/25 19:43:21;;;;;;;9.07;6.07;;;;;;;;;;10249222;28;20263;-71
2021/07/25 19:48:23;;;;;;;7.60;4.50;;;;;;;;;;10249678;28;20204;-72
2021/07/25 19:53:26;;;;;;;7.50;4.30;;;;;;;;;;10247855;28;20356;-72
2021/07/25 19:58:30;;;;;;;11.83;6.03;;;;;;;;;;10249070;28;20225;-72
2021/07/25 20:03:38;;;;;;;9.07;4.90;;;;;;;;;;10252189;28;20291;-72
2021/07/25 20:08:41;;;;;;;8.93;4.43;;;;;;;;;;10248716;28;20196;-71
2021/07/25 20:13:45;;;;;;;8.67;4.30;;;;;;;;;;10250634;28;20231;-71
2021/07/25 20:18:47;;;;;;;9.67;5.10;;;;;;;;;;10244172;28;20922;-71
2021/07/25 20:23:50;;;;;;;8.73;4.87;;;;;;;;;;10241870;28;20231;-71
2021/07/25 20:28:54;;;;;;;10.03;5.90;;;;;;;;;;10245458;28;20280;-72
2021/07/25 20:33:57;;;;;;;8.87;4.23;;;;;;;;;;10247993;28;20278;-71
2021/07/25 20:39:00;;;;;;;8.18;4.80;;;;;;;;;;10249124;28;20456;-72
2021/07/25 20:44:04;;;;;;;10.43;5.30;;;;;;;;;;10249354;28;20220;-72
2021/07/25 20:49:07;;;;;;;8.10;4.47;;;;;;;;;;10257484;28;20232;-71
2021/07/25 20:54:10;;;;;;;8.70;5.23;;;;;;;;;;10249145;28;20771;-71
2021/07/25 20:59:28;;;;;;;12.73;8.67;;;;;;;;;;10242974;28;20223;-72
2021/07/25 21:04:50;;;;;;;11.17;7.63;;;;;;;;;;10241031;28;20220;-72
2021/07/25 21:09:53;;;;;;;10.57;5.73;;;;;;;;;;10243975;28;20213;-72
2021/07/25 21:14:58;;;;;;;8.47;5.17;;;;;;;;;;10242299;28;20231;-72
2021/07/25 21:20:00;;;;;;;10.17;5.90;;;;;;;;;;10249367;28;20198;-72
2021/07/25 21:25:03;;;;;;;10.43;5.07;;;;;;;;;;10251529;28;20224;-72
2021/07/25 21:30:07;;;;;;;9.00;4.97;;;;;;;;;;10251480;28;20240;-71
2021/07/25 21:35:10;;;;;;;8.70;4.60;;;;;;;;;;10255380;28;20221;-72
2021/07/25 21:40:13;;;;;;;8.73;4.50;;;;;;;;;;10257302;28;20243;-71
2021/07/25 21:45:17;;;;;;;9.10;4.83;;;;;;;;;;10258170;28;20299;-72
2021/07/25 21:50:20;;;;;;;9.70;5.40;;;;;;;;;;10253367;28;20224;-71
2021/07/25 21:55:22;;;;;;;8.50;5.10;;;;;;;;;;10256292;28;20223;-72
2021/07/25 22:00:26;;;;;;;9.30;5.60;;;;;;;;;;10254860;28;20212;-71
2021/07/25 22:05:29;;;;;;;10.40;5.23;;;;;;;;;;10251467;28;20297;-71
2021/07/25 22:10:31;;;;;;;9.20;5.57;;;;;;;;;;10265568;28;20235;-70
2021/07/25 22:15:35;;;;;;;8.80;5.37;;;;;;;;;;10260902;28;20710;-70
2021/07/25 22:20:38;;;;;;;10.27;5.90;;;;;;;;;;10263288;28;20570;-71
2021/07/25 22:25:40;;;;;;;10.13;5.90;;;;;;;;;;10262877;28;20299;-72
2021/07/25 22:30:44;;;;;;;9.47;5.97;;;;;;;;;;10278755;28;20271;-71
2021/07/25 22:35:46;;;;;;;9.03;5.77;;;;;;;;;;10262771;28;20667;-71
2021/07/25 22:40:49;;;;;;;9.07;6.20;;;;;;;;;;10261441;28;20274;-71
2021/07/25 22:45:53;;;;;;;11.13;6.30;;;;;;;;;;10262859;28;20275;-71
2021/07/25 22:50:55;;;;;;;9.17;5.13;;;;;;;;;;10248841;28;20223;-72
2021/07/25 22:55:58;;;;;;;12.53;7.20;;;;;;;;;;10248824;28;20319;-71
2021/07/25 23:01:02;;;;;;;10.70;7.10;;;;;;;;;;10247061;28;20223;-72
2021/07/25 23:06:06;;;;;;;10.57;6.50;;;;;;;;;;10237191;28;20228;-69
2021/07/25 23:11:08;;;;;;;11.83;6.70;;;;;;;;;;10251358;28;20216;-71
2021/07/25 23:16:12;;;;;;;11.43;6.70;;;;;;;;;;10248869;28;20234;-71
2021/07/25 23:21:14;;;;;;;13.93;7.23;;;;;;;;;;10256687;28;20244;-72
2021/07/25 23:26:19;;;;;;;11.40;7.37;;;;;;;;;;10247643;28;20220;-72
2021/07/25 23:31:23;;;;;;;10.00;6.50;;;;;;;;;;10256962;28;20205;-70
2021/07/25 23:36:25;;;;;;;9.93;6.70;;;;;;;;;;10253178;28;20208;-71
2021/07/25 23:41:28;;;;;;;12.70;7.03;;;;;;;;;;10246617;28;20197;-71
2021/07/25 23:46:32;;;;;;;9.63;6.23;;;;;;;;;;10259952;28;20244;-71
2021/07/25 23:51:37;;;;;;;10.67;6.77;;;;;;;;;;10245676;28;20684;-70
2021/07/25 23:56:40;;;;;;;11.93;6.97;;;;;;;;;;10259386;28;20303;-73
